sensor_id;sensor_type;location;lat;lon;timestamp;P1;durP1;ratioP1;P2;durP2;ratioP2
10166;SDS011;5125;53.130;8.244;2022-07-30T00:00:05;2.53;;;2.30;;
10166;SDS011;5125;53.130;8.244;2022-07-30T00:02:36;2.83;;;2.33;;
10166;SDS011;5125;53.130;8.244;2022-07-30T00:05:06;2.53;;;2.33;;
10166;SDS011;5125;53.130;8.244;2022-07-30T00:07:38;3.07;;;2.40;;
10166;SDS011;5125;53.130;8.244;2022-07-30T00:10:07;2.67;;;2.43;;
10166;SDS011;5125;53.130;8.244;2022-07-30T00:12:37;3.23;;;2.47;;
10166;SDS011;5125;53.130;8.244;2022-07-30T00:15:06;2.87;;;2.50;;
10166;SDS011;5125;53.130;8.244;2022-07-30T00:17:35;2.70;;;2.20;;
10166;SDS011;5125;53.130;8.244;2022-07-30T00:20:05;2.53;;;2.23;;
10166;SDS011;5125;53.130;8.244;2022-07-30T00:22:34;4.13;;;2.90;;
10166;SDS011;5125;53.130;8.244;2022-07-30T00:25:06;3.13;;;2.80;;
10166;SDS011;5125;53.130;8.244;2022-07-30T00:27:35;4.20;;;3.20;;
10166;SDS011;5125;53.130;8.244;2022-07-30T00:30:04;3.20;;;2.87;;
10166;SDS011;5125;53.130;8.244;2022-07-30T00:32:34;3.87;;;3.07;;
10166;SDS011;5125;53.130;8.244;2022-07-30T00:35:03;4.13;;;2.90;;
10166;SDS011;5125;53.130;8.244;2022-07-30T00:37:33;2.90;;;2.50;;
10166;SDS011;5125;53.130;8.244;2022-07-30T00:40:02;3.83;;;2.50;;
10166;SDS011;5125;53.130;8.244;2022-07-30T00:42:35;3.70;;;3.17;;
10166;SDS011;5125;53.130;8.244;2022-07-30T00:45:05;3.77;;;2.53;;
10166;SDS011;5125;53.130;8.244;2022-07-30T00:47:36;2.93;;;2.23;;
10166;SDS011;5125;53.130;8.244;2022-07-30T00:50:06;4.60;;;2.60;;
10166;SDS011;5125;53.130;8.244;2022-07-30T00:52:36;2.77;;;2.37;;
10166;SDS011;5125;53.130;8.244;2022-07-30T00:55:09;4.30;;;2.67;;
10166;SDS011;5125;53.130;8.244;2022-07-30T00:57:38;2.93;;;2.73;;
10166;SDS011;5125;53.130;8.244;2022-07-30T01:00:08;3.23;;;2.53;;
10166;SDS011;5125;53.130;8.244;2022-07-30T01:02:38;2.97;;;2.40;;
10166;SDS011;5125;53.130;8.244;2022-07-30T01:05:07;2.23;;;2.07;;
10166;SDS011;5125;53.130;8.244;2022-07-30T01:07:37;3.27;;;2.87;;
10166;SDS011;5125;53.130;8.244;2022-07-30T01:10:09;3.23;;;2.30;;
10166;SDS011;5125;53.130;8.244;2022-07-30T01:12:40;2.87;;;2.40;;
10166;SDS011;5125;53.130;8.244;2022-07-30T01:15:09;2.77;;;2.30;;
10166;SDS011;5125;53.130;8.244;2022-07-30T01:17:38;2.70;;;2.47;;
10166;SDS011;5125;53.130;8.244;2022-07-30T01:20:09;2.37;;;2.13;;
10166;SDS011;5125;53.130;8.244;2022-07-30T01:22:39;2.57;;;2.23;;
10166;SDS011;5125;53.130;8.244;2022-07-30T01:25:16;3.17;;;2.50;;
10166;SDS011;5125;53.130;8.244;2022-07-30T01:27:52;4.37;;;2.47;;
10166;SDS011;5125;53.130;8.244;2022-07-30T01:30:24;3.90;;;2.47;;
10166;SDS011;5125;53.130;8.244;2022-07-30T01:32:55;2.63;;;2.40;;
10166;SDS011;5125;53.130;8.244;2022-07-30T01:35:25;2.53;;;2.20;;
10166;SDS011;5125;53.130;8.244;2022-07-30T01:37:55;3.07;;;2.77;;
10166;SDS011;5125;53.130;8.244;2022-07-30T01:40:26;2.97;;;2.50;;
10166;SDS011;5125;53.130;8.244;2022-07-30T01:42:58;2.60;;;2.40;;
10166;SDS011;5125;53.130;8.244;2022-07-30T01:45:28;3.63;;;2.70;;
10166;SDS011;5125;53.130;8.244;2022-07-30T01:47:59;2.90;;;2.60;;
10166;SDS011;5125;53.130;8.244;2022-07-30T01:50:28;3.13;;;2.53;;
10166;SDS011;5125;53.130;8.244;2022-07-30T01:52:58;3.80;;;2.80;;
10166;SDS011;5125;53.130;8.244;2022-07-30T01:55:29;2.70;;;2.50;;
10166;SDS011;5125;53.130;8.244;2022-07-30T01:58:02;3.13;;;2.80;;
10166;SDS011;5125;53.130;8.244;2022-07-30T02:00:35;2.97;;;2.67;;
10166;SDS011;5125;53.130;8.244;2022-07-30T02:03:05;2.60;;;2.40;;
10166;SDS011;5125;53.130;8.244;2022-07-30T02:05:34;3.07;;;2.70;;
10166;SDS011;5125;53.130;8.244;2022-07-30T02:08:05;2.90;;;2.60;;
10166;SDS011;5125;53.130;8.244;2022-07-30T02:10:40;4.73;;;2.83;;
10166;SDS011;5125;53.130;8.244;2022-07-30T02:13:13;3.60;;;2.80;;
10166;SDS011;5125;53.130;8.244;2022-07-30T02:15:42;2.80;;;2.60;;
10166;SDS011;5125;53.130;8.244;2022-07-30T02:18:16;2.73;;;2.50;;
10166;SDS011;5125;53.130;8.244;2022-07-30T02:20:57;3.13;;;2.83;;
10166;SDS011;5125;53.130;8.244;2022-07-30T02:23:27;3.87;;;2.60;;
10166;SDS011;5125;53.130;8.244;2022-07-30T02:25:58;3.30;;;3.00;;
10166;SDS011;5125;53.130;8.244;2022-07-30T02:28:31;3.20;;;2.90;;
10166;SDS011;5125;53.130;8.244;2022-07-30T02:31:04;3.17;;;2.80;;
10166;SDS011;5125;53.130;8.244;2022-07-30T02:33:35;3.20;;;2.90;;
10166;SDS011;5125;53.130;8.244;2022-07-30T02:36:06;3.37;;;2.90;;
10166;SDS011;5125;53.130;8.244;2022-07-30T02:38:36;3.57;;;3.20;;
10166;SDS011;5125;53.130;8.244;2022-07-30T02:41:06;3.33;;;3.00;;
10166;SDS011;5125;53.130;8.244;2022-07-30T02:43:38;3.37;;;3.07;;
10166;SDS011;5125;53.130;8.244;2022-07-30T02:46:08;3.40;;;2.70;;
10166;SDS011;5125;53.130;8.244;2022-07-30T02:48:39;3.30;;;3.03;;
10166;SDS011;5125;53.130;8.244;2022-07-30T02:51:08;3.17;;;2.97;;
10166;SDS011;5125;53.130;8.244;2022-07-30T02:53:38;4.30;;;3.17;;
10166;SDS011;5125;53.130;8.244;2022-07-30T02:56:07;3.83;;;3.17;;
10166;SDS011;5125;53.130;8.244;2022-07-30T02:58:40;4.00;;;3.10;;
10166;SDS011;5125;53.130;8.244;2022-07-30T03:01:09;3.67;;;3.20;;
10166;SDS011;5125;53.130;8.244;2022-07-30T03:03:40;4.07;;;3.07;;
10166;SDS011;5125;53.130;8.244;2022-07-30T03:06:10;3.23;;;3.00;;
10166;SDS011;5125;53.130;8.244;2022-07-30T03:08:39;3.50;;;3.20;;
10166;SDS011;5125;53.130;8.244;2022-07-30T03:11:09;3.30;;;3.10;;
10166;SDS011;5125;53.130;8.244;2022-07-30T03:13:40;3.60;;;2.90;;
10166;SDS011;5125;53.130;8.244;2022-07-30T03:16:09;4.07;;;3.13;;
10166;SDS011;5125;53.130;8.244;2022-07-30T03:18:38;3.17;;;2.87;;
10166;SDS011;5125;53.130;8.244;2022-07-30T03:21:09;3.67;;;2.90;;
10166;SDS011;5125;53.130;8.244;2022-07-30T03:23:38;3.30;;;3.10;;
10166;SDS011;5125;53.130;8.244;2022-07-30T03:26:07;3.47;;;3.10;;
10166;SDS011;5125;53.130;8.244;2022-07-30T03:28:37;3.80;;;3.40;;
10166;SDS011;5125;53.130;8.244;2022-07-30T03:31:09;3.63;;;3.33;;
10166;SDS011;5125;53.130;8.244;2022-07-30T03:33:38;3.77;;;3.00;;
10166;SDS011;5125;53.130;8.244;2022-07-30T03:36:07;4.43;;;3.10;;
10166;SDS011;5125;53.130;8.244;2022-07-30T03:38:37;4.27;;;3.10;;
10166;SDS011;5125;53.130;8.244;2022-07-30T03:41:07;4.13;;;2.93;;
10166;SDS011;5125;53.130;8.244;2022-07-30T03:43:36;4.53;;;3.50;;
10166;SDS011;5125;53.130;8.244;2022-07-30T03:46:07;3.57;;;3.27;;
10166;SDS011;5125;53.130;8.244;2022-07-30T03:48:37;3.50;;;3.20;;
10166;SDS011;5125;53.130;8.244;2022-07-30T03:51:06;3.73;;;3.33;;
10166;SDS011;5125;53.130;8.244;2022-07-30T03:53:35;3.37;;;3.07;;
10166;SDS011;5125;53.130;8.244;2022-07-30T03:56:04;4.37;;;3.03;;
10166;SDS011;5125;53.130;8.244;2022-07-30T03:58:37;3.07;;;2.77;;
10166;SDS011;5125;53.130;8.244;2022-07-30T04:01:08;3.10;;;2.80;;
10166;SDS011;5125;53.130;8.244;2022-07-30T04:03:37;3.77;;;3.40;;
10166;SDS011;5125;53.130;8.244;2022-07-30T04:06:06;3.50;;;3.20;;
10166;SDS011;5125;53.130;8.244;2022-07-30T04:08:34;4.23;;;3.53;;
10166;SDS011;5125;53.130;8.244;2022-07-30T04:11:03;3.47;;;3.07;;
10166;SDS011;5125;53.130;8.244;2022-07-30T04:13:32;3.80;;;3.43;;
10166;SDS011;5125;53.130;8.244;2022-07-30T04:16:01;3.30;;;3.00;;
10166;SDS011;5125;53.130;8.244;2022-07-30T04:18:36;3.13;;;2.90;;
10166;SDS011;5125;53.130;8.244;2022-07-30T04:21:08;3.57;;;3.27;;
10166;SDS011;5125;53.130;8.244;2022-07-30T04:23:38;3.07;;;2.80;;
10166;SDS011;5125;53.130;8.244;2022-07-30T04:26:07;3.40;;;3.10;;
10166;SDS011;5125;53.130;8.244;2022-07-30T04:28:36;3.33;;;3.03;;
10166;SDS011;5125;53.130;8.244;2022-07-30T04:31:05;3.50;;;3.20;;
10166;SDS011;5125;53.130;8.244;2022-07-30T04:33:38;3.37;;;3.07;;
10166;SDS011;5125;53.130;8.244;2022-07-30T04:36:06;3.93;;;2.90;;
10166;SDS011;5125;53.130;8.244;2022-07-30T04:38:35;4.23;;;3.50;;
10166;SDS011;5125;53.130;8.244;2022-07-30T04:41:04;3.30;;;3.00;;
10166;SDS011;5125;53.130;8.244;2022-07-30T04:43:33;3.60;;;3.30;;
10166;SDS011;5125;53.130;8.244;2022-07-30T04:46:02;3.40;;;3.10;;
10166;SDS011;5125;53.130;8.244;2022-07-30T04:48:30;3.57;;;3.27;;
10166;SDS011;5125;53.130;8.244;2022-07-30T04:51:03;3.37;;;3.07;;
10166;SDS011;5125;53.130;8.244;2022-07-30T04:53:32;3.43;;;3.13;;
10166;SDS011;5125;53.130;8.244;2022-07-30T04:56:03;3.47;;;3.07;;
10166;SDS011;5125;53.130;8.244;2022-07-30T04:58:32;3.13;;;2.93;;
10166;SDS011;5125;53.130;8.244;2022-07-30T05:01:01;3.17;;;2.87;;
10166;SDS011;5125;53.130;8.244;2022-07-30T05:03:31;4.47;;;3.20;;
10166;SDS011;5125;53.130;8.244;2022-07-30T05:06:05;3.00;;;2.80;;
10166;SDS011;5125;53.130;8.244;2022-07-30T05:08:35;2.90;;;2.60;;
10166;SDS011;5125;53.130;8.244;2022-07-30T05:37:06;5.60;;;3.17;;
10166;SDS011;5125;53.130;8.244;2022-07-30T05:39:35;5.20;;;3.20;;
10166;SDS011;5125;53.130;8.244;2022-07-30T05:42:04;3.90;;;3.53;;
10166;SDS011;5125;53.130;8.244;2022-07-30T05:44:33;3.78;;;3.22;;
10166;SDS011;5125;53.130;8.244;2022-07-30T05:47:02;6.25;;;4.25;;
10166;SDS011;5125;53.130;8.244;2022-07-30T05:49:31;3.78;;;3.03;;
10166;SDS011;5125;53.130;8.244;2022-07-30T05:52:00;3.70;;;3.40;;
10166;SDS011;5125;53.130;8.244;2022-07-30T05:54:31;3.78;;;3.42;;
10166;SDS011;5125;53.130;8.244;2022-07-30T05:57:00;3.65;;;3.35;;
10166;SDS011;5125;53.130;8.244;2022-07-30T05:59:28;4.25;;;3.22;;
10166;SDS011;5125;53.130;8.244;2022-07-30T06:01:57;3.38;;;3.08;;
10166;SDS011;5125;53.130;8.244;2022-07-30T06:04:27;5.55;;;3.53;;
10166;SDS011;5125;53.130;8.244;2022-07-30T06:06:55;4.15;;;3.15;;
10166;SDS011;5125;53.130;8.244;2022-07-30T06:09:24;3.50;;;3.17;;
10166;SDS011;5125;53.130;8.244;2022-07-30T06:11:55;3.75;;;3.22;;
10166;SDS011;5125;53.130;8.244;2022-07-30T06:14:24;4.57;;;3.00;;
10166;SDS011;5125;53.130;8.244;2022-07-30T06:16:53;4.47;;;2.95;;
10166;SDS011;5125;53.130;8.244;2022-07-30T06:19:22;3.67;;;3.13;;
10166;SDS011;5125;53.130;8.244;2022-07-30T06:21:50;3.58;;;2.97;;
10166;SDS011;5125;53.130;8.244;2022-07-30T06:24:19;3.33;;;3.00;;
10166;SDS011;5125;53.130;8.244;2022-07-30T06:26:48;4.00;;;3.03;;
10166;SDS011;5125;53.130;8.244;2022-07-30T06:29:19;4.47;;;2.55;;
10166;SDS011;5125;53.130;8.244;2022-07-30T06:31:48;3.13;;;2.55;;
10166;SDS011;5125;53.130;8.244;2022-07-30T06:34:16;3.78;;;2.83;;
10166;SDS011;5125;53.130;8.244;2022-07-30T06:36:45;3.63;;;2.80;;
10166;SDS011;5125;53.130;8.244;2022-07-30T06:39:14;3.10;;;2.90;;
10166;SDS011;5125;53.130;8.244;2022-07-30T06:41:43;4.30;;;3.13;;
10166;SDS011;5125;53.130;8.244;2022-07-30T06:44:11;4.00;;;2.70;;
10166;SDS011;5125;53.130;8.244;2022-07-30T06:46:42;3.65;;;2.97;;
10166;SDS011;5125;53.130;8.244;2022-07-30T06:49:11;4.10;;;2.60;;
10166;SDS011;5125;53.130;8.244;2022-07-30T06:51:40;3.05;;;2.80;;
10166;SDS011;5125;53.130;8.244;2022-07-30T06:54:12;3.50;;;2.47;;
10166;SDS011;5125;53.130;8.244;2022-07-30T06:56:44;4.30;;;2.42;;
10166;SDS011;5125;53.130;8.244;2022-07-30T06:59:13;3.75;;;2.40;;
10166;SDS011;5125;53.130;8.244;2022-07-30T07:01:44;3.33;;;2.38;;
10166;SDS011;5125;53.130;8.244;2022-07-30T07:04:13;2.83;;;2.20;;
10166;SDS011;5125;53.130;8.244;2022-07-30T07:06:42;2.50;;;2.30;;
10166;SDS011;5125;53.130;8.244;2022-07-30T07:09:11;4.35;;;2.20;;
10166;SDS011;5125;53.130;8.244;2022-07-30T07:11:40;2.17;;;1.98;;
10166;SDS011;5125;53.130;8.244;2022-07-30T07:14:08;2.00;;;1.80;;
10166;SDS011;5125;53.130;8.244;2022-07-30T07:16:37;2.63;;;1.90;;
10166;SDS011;5125;53.130;8.244;2022-07-30T07:19:08;2.50;;;2.22;;
10166;SDS011;5125;53.130;8.244;2022-07-30T07:21:37;2.88;;;2.20;;
10166;SDS011;5125;53.130;8.244;2022-07-30T07:24:06;4.47;;;2.20;;
10166;SDS011;5125;53.130;8.244;2022-07-30T07:26:34;4.35;;;2.35;;
10166;SDS011;5125;53.130;8.244;2022-07-30T07:29:04;6.57;;;2.00;;
10166;SDS011;5125;53.130;8.244;2022-07-30T07:31:32;2.20;;;2.00;;
10166;SDS011;5125;53.130;8.244;2022-07-30T07:34:01;2.38;;;2.08;;
10166;SDS011;5125;53.130;8.244;2022-07-30T07:36:34;2.00;;;1.77;;
10166;SDS011;5125;53.130;8.244;2022-07-30T07:39:03;3.90;;;2.03;;
10166;SDS011;5125;53.130;8.244;2022-07-30T07:41:34;3.45;;;1.75;;
10166;SDS011;5125;53.130;8.244;2022-07-30T07:44:04;3.15;;;2.10;;
10166;SDS011;5125;53.130;8.244;2022-07-30T07:46:33;3.38;;;1.92;;
10166;SDS011;5125;53.130;8.244;2022-07-30T07:49:02;4.05;;;1.85;;
10166;SDS011;5125;53.130;8.244;2022-07-30T07:51:30;2.53;;;1.80;;
10166;SDS011;5125;53.130;8.244;2022-07-30T07:54:03;3.10;;;1.95;;
10166;SDS011;5125;53.130;8.244;2022-07-30T07:56:32;2.10;;;1.90;;
10166;SDS011;5125;53.130;8.244;2022-07-30T07:59:01;2.28;;;2.05;;
10166;SDS011;5125;53.130;8.244;2022-07-30T08:01:30;3.28;;;1.70;;
10166;SDS011;5125;53.130;8.244;2022-07-30T08:03:59;3.95;;;1.77;;
10166;SDS011;5125;53.130;8.244;2022-07-30T08:06:28;1.75;;;1.63;;
10166;SDS011;5125;53.130;8.244;2022-07-30T08:08:57;2.63;;;2.05;;
10166;SDS011;5125;53.130;8.244;2022-07-30T08:11:29;3.95;;;1.90;;
10166;SDS011;5125;53.130;8.244;2022-07-30T08:13:57;2.20;;;1.95;;
10166;SDS011;5125;53.130;8.244;2022-07-30T08:16:26;2.40;;;1.50;;
10166;SDS011;5125;53.130;8.244;2022-07-30T08:18:55;6.82;;;1.95;;
10166;SDS011;5125;53.130;8.244;2022-07-30T08:21:23;3.83;;;1.77;;
10166;SDS011;5125;53.130;8.244;2022-07-30T08:23:52;3.97;;;1.77;;
10166;SDS011;5125;53.130;8.244;2022-07-30T08:26:21;2.42;;;2.05;;
10166;SDS011;5125;53.130;8.244;2022-07-30T08:28:52;2.40;;;1.70;;
10166;SDS011;5125;53.130;8.244;2022-07-30T08:31:23;3.35;;;1.83;;
10166;SDS011;5125;53.130;8.244;2022-07-30T08:33:52;2.45;;;1.95;;
10166;SDS011;5125;53.130;8.244;2022-07-30T08:36:20;3.78;;;2.38;;
10166;SDS011;5125;53.130;8.244;2022-07-30T08:38:49;2.65;;;1.70;;
10166;SDS011;5125;53.130;8.244;2022-07-30T08:41:18;2.38;;;1.92;;
10166;SDS011;5125;53.130;8.244;2022-07-30T08:43:48;3.15;;;1.88;;
10166;SDS011;5125;53.130;8.244;2022-07-30T08:46:20;3.53;;;1.88;;
10166;SDS011;5125;53.130;8.244;2022-07-30T08:48:51;2.17;;;1.95;;
10166;SDS011;5125;53.130;8.244;2022-07-30T08:51:23;2.05;;;1.85;;
10166;SDS011;5125;53.130;8.244;2022-07-30T08:53:53;2.25;;;1.92;;
10166;SDS011;5125;53.130;8.244;2022-07-30T08:56:22;3.50;;;2.10;;
10166;SDS011;5125;53.130;8.244;2022-07-30T08:58:52;4.05;;;2.20;;
10166;SDS011;5125;53.130;8.244;2022-07-30T09:01:24;2.40;;;2.10;;
10166;SDS011;5125;53.130;8.244;2022-07-30T09:03:53;2.60;;;2.20;;
10166;SDS011;5125;53.130;8.244;2022-07-30T09:06:21;2.65;;;1.90;;
10166;SDS011;5125;53.130;8.244;2022-07-30T09:08:50;2.30;;;1.90;;
10166;SDS011;5125;53.130;8.244;2022-07-30T09:11:19;2.15;;;1.67;;
10166;SDS011;5125;53.130;8.244;2022-07-30T09:13:47;1.98;;;1.67;;
10166;SDS011;5125;53.130;8.244;2022-07-30T09:16:18;2.28;;;1.98;;
10166;SDS011;5125;53.130;8.244;2022-07-30T09:18:51;3.10;;;2.30;;
10166;SDS011;5125;53.130;8.244;2022-07-30T09:21:23;3.15;;;2.00;;
10166;SDS011;5125;53.130;8.244;2022-07-30T09:23:56;2.85;;;2.03;;
10166;SDS011;5125;53.130;8.244;2022-07-30T09:26:26;2.38;;;2.10;;
10166;SDS011;5125;53.130;8.244;2022-07-30T09:28:55;2.90;;;2.20;;
10166;SDS011;5125;53.130;8.244;2022-07-30T09:31:35;2.38;;;2.17;;
10166;SDS011;5125;53.130;8.244;2022-07-30T09:34:26;3.85;;;2.30;;
10166;SDS011;5125;53.130;8.244;2022-07-30T09:36:56;2.33;;;1.60;;
10166;SDS011;5125;53.130;8.244;2022-07-30T09:39:29;2.58;;;1.90;;
10166;SDS011;5125;53.130;8.244;2022-07-30T09:41:58;2.45;;;2.03;;
10166;SDS011;5125;53.130;8.244;2022-07-30T09:44:28;2.58;;;2.00;;
10166;SDS011;5125;53.130;8.244;2022-07-30T09:46:57;3.83;;;1.95;;
10166;SDS011;5125;53.130;8.244;2022-07-30T09:49:29;2.85;;;1.90;;
10166;SDS011;5125;53.130;8.244;2022-07-30T09:51:58;3.97;;;2.15;;
10166;SDS011;5125;53.130;8.244;2022-07-30T09:54:43;3.22;;;1.98;;
10166;SDS011;5125;53.130;8.244;2022-07-30T09:57:14;2.88;;;2.00;;
10166;SDS011;5125;53.130;8.244;2022-07-30T09:59:42;2.55;;;1.90;;
10166;SDS011;5125;53.130;8.244;2022-07-30T10:02:11;2.28;;;1.80;;
10166;SDS011;5125;53.130;8.244;2022-07-30T10:04:42;3.30;;;1.83;;
10166;SDS011;5125;53.130;8.244;2022-07-30T10:07:18;3.53;;;2.00;;
10166;SDS011;5125;53.130;8.244;2022-07-30T10:09:48;2.35;;;1.90;;
10166;SDS011;5125;53.130;8.244;2022-07-30T10:12:18;2.72;;;2.00;;
10166;SDS011;5125;53.130;8.244;2022-07-30T10:14:48;2.10;;;1.80;;
10166;SDS011;5125;53.130;8.244;2022-07-30T10:17:17;2.13;;;1.92;;
10166;SDS011;5125;53.130;8.244;2022-07-30T10:19:49;2.67;;;1.90;;
10166;SDS011;5125;53.130;8.244;2022-07-30T10:22:18;2.40;;;1.80;;
10166;SDS011;5125;53.130;8.244;2022-07-30T10:24:47;2.40;;;1.83;;
10166;SDS011;5125;53.130;8.244;2022-07-30T10:27:18;3.80;;;2.92;;
10166;SDS011;5125;53.130;8.244;2022-07-30T10:29:47;6.65;;;6.05;;
10166;SDS011;5125;53.130;8.244;2022-07-30T10:32:15;4.65;;;3.55;;
10166;SDS011;5125;53.130;8.244;2022-07-30T10:34:45;3.20;;;2.80;;
10166;SDS011;5125;53.130;8.244;2022-07-30T10:37:18;4.57;;;3.42;;
10166;SDS011;5125;53.130;8.244;2022-07-30T10:39:49;3.85;;;2.88;;
10166;SDS011;5125;53.130;8.244;2022-07-30T10:42:24;2.78;;;2.42;;
10166;SDS011;5125;53.130;8.244;2022-07-30T10:45:12;7.78;;;4.70;;
10166;SDS011;5125;53.130;8.244;2022-07-30T10:47:47;2.83;;;2.40;;
10166;SDS011;5125;53.130;8.244;2022-07-30T10:50:17;2.50;;;2.25;;
10166;SDS011;5125;53.130;8.244;2022-07-30T10:52:54;2.40;;;2.20;;
10166;SDS011;5125;53.130;8.244;2022-07-30T10:55:25;2.55;;;2.20;;
10166;SDS011;5125;53.130;8.244;2022-07-30T10:57:56;2.70;;;2.50;;
10166;SDS011;5125;53.130;8.244;2022-07-30T11:00:29;4.03;;;2.20;;
10166;SDS011;5125;53.130;8.244;2022-07-30T11:03:11;2.00;;;1.80;;
10166;SDS011;5125;53.130;8.244;2022-07-30T11:05:48;2.90;;;2.13;;
10166;SDS011;5125;53.130;8.244;2022-07-30T11:08:30;2.15;;;1.92;;
10166;SDS011;5125;53.130;8.244;2022-07-30T11:11:03;2.72;;;2.00;;
10166;SDS011;5125;53.130;8.244;2022-07-30T11:16:21;2.60;;;2.05;;
10166;SDS011;5125;53.130;8.244;2022-07-30T11:19:01;1.98;;;1.80;;
10166;SDS011;5125;53.130;8.244;2022-07-30T11:21:36;2.50;;;2.30;;
10166;SDS011;5125;53.130;8.244;2022-07-30T11:24:07;2.30;;;2.10;;
10166;SDS011;5125;53.130;8.244;2022-07-30T11:27:11;4.70;;;2.05;;
10166;SDS011;5125;53.130;8.244;2022-07-30T11:30:05;3.25;;;2.90;;
10166;SDS011;5125;53.130;8.244;2022-07-30T11:41:23;2.63;;;2.40;;
10166;SDS011;5125;53.130;8.244;2022-07-30T11:46:54;2.20;;;2.00;;
10166;SDS011;5125;53.130;8.244;2022-07-30T11:49:24;2.97;;;2.15;;
10166;SDS011;5125;53.130;8.244;2022-07-30T11:51:52;2.50;;;2.30;;
10166;SDS011;5125;53.130;8.244;2022-07-30T11:54:21;2.20;;;2.00;;
10166;SDS011;5125;53.130;8.244;2022-07-30T11:56:51;2.92;;;2.10;;
10166;SDS011;5125;53.130;8.244;2022-07-30T11:59:21;2.20;;;2.00;;
10166;SDS011;5125;53.130;8.244;2022-07-30T12:01:50;2.33;;;2.13;;
10166;SDS011;5125;53.130;8.244;2022-07-30T12:04:25;2.38;;;2.05;;
10166;SDS011;5125;53.130;8.244;2022-07-30T12:06:56;3.13;;;2.08;;
10166;SDS011;5125;53.130;8.244;2022-07-30T12:09:25;2.47;;;2.00;;
10166;SDS011;5125;53.130;8.244;2022-07-30T12:11:56;2.38;;;2.00;;
10166;SDS011;5125;53.130;8.244;2022-07-30T12:14:25;3.65;;;2.00;;
10166;SDS011;5125;53.130;8.244;2022-07-30T12:16:56;4.18;;;1.90;;
10166;SDS011;5125;53.130;8.244;2022-07-30T12:19:25;3.33;;;2.35;;
10166;SDS011;5125;53.130;8.244;2022-07-30T12:21:57;3.88;;;2.20;;
10166;SDS011;5125;53.130;8.244;2022-07-30T12:24:25;2.53;;;2.20;;
10166;SDS011;5125;53.130;8.244;2022-07-30T12:27:02;2.47;;;2.28;;
10166;SDS011;5125;53.130;8.244;2022-07-30T12:29:31;3.55;;;2.20;;
10166;SDS011;5125;53.130;8.244;2022-07-30T12:32:03;2.20;;;2.00;;
10166;SDS011;5125;53.130;8.244;2022-07-30T12:34:32;3.30;;;2.00;;
10166;SDS011;5125;53.130;8.244;2022-07-30T12:37:07;2.15;;;1.95;;
10166;SDS011;5125;53.130;8.244;2022-07-30T12:39:37;2.83;;;2.15;;
10166;SDS011;5125;53.130;8.244;2022-07-30T12:42:06;2.20;;;2.10;;
10166;SDS011;5125;53.130;8.244;2022-07-30T12:44:35;2.20;;;2.00;;
10166;SDS011;5125;53.130;8.244;2022-07-30T12:47:21;2.42;;;2.08;;
10166;SDS011;5125;53.130;8.244;2022-07-30T12:49:51;3.22;;;1.85;;
10166;SDS011;5125;53.130;8.244;2022-07-30T12:52:24;2.58;;;2.38;;
10166;SDS011;5125;53.130;8.244;2022-07-30T12:55:01;2.65;;;2.05;;
10166;SDS011;5125;53.130;8.244;2022-07-30T13:00:22;2.30;;;2.10;;
10166;SDS011;5125;53.130;8.244;2022-07-30T13:02:55;2.45;;;2.20;;
10166;SDS011;5125;53.130;8.244;2022-07-30T13:08:14;2.33;;;2.10;;
10166;SDS011;5125;53.130;8.244;2022-07-30T13:10:55;2.50;;;2.25;;
10166;SDS011;5125;53.130;8.244;2022-07-30T13:13:25;3.55;;;2.58;;
10166;SDS011;5125;53.130;8.244;2022-07-30T13:15:58;2.63;;;2.25;;
10166;SDS011;5125;53.130;8.244;2022-07-30T13:18:30;2.70;;;2.40;;
10166;SDS011;5125;53.130;8.244;2022-07-30T13:21:01;2.45;;;2.00;;
10166;SDS011;5125;53.130;8.244;2022-07-30T13:23:31;3.53;;;2.40;;
10166;SDS011;5125;53.130;8.244;2022-07-30T13:26:00;2.50;;;2.30;;
10166;SDS011;5125;53.130;8.244;2022-07-30T13:28:34;2.53;;;2.13;;
10166;SDS011;5125;53.130;8.244;2022-07-30T13:31:03;3.55;;;2.20;;
10166;SDS011;5125;53.130;8.244;2022-07-30T13:33:35;3.25;;;2.33;;
10166;SDS011;5125;53.130;8.244;2022-07-30T13:36:04;5.13;;;2.28;;
10166;SDS011;5125;53.130;8.244;2022-07-30T13:38:33;3.33;;;1.90;;
10166;SDS011;5125;53.130;8.244;2022-07-30T13:41:02;3.17;;;2.42;;
10166;SDS011;5125;53.130;8.244;2022-07-30T13:43:31;3.65;;;1.98;;
10166;SDS011;5125;53.130;8.244;2022-07-30T13:46:00;2.42;;;2.13;;
10166;SDS011;5125;53.130;8.244;2022-07-30T13:48:35;3.22;;;1.95;;
10166;SDS011;5125;53.130;8.244;2022-07-30T13:51:04;4.22;;;2.53;;
10166;SDS011;5125;53.130;8.244;2022-07-30T13:53:34;2.85;;;2.22;;
10166;SDS011;5125;53.130;8.244;2022-07-30T13:56:03;3.08;;;2.42;;
10166;SDS011;5125;53.130;8.244;2022-07-30T13:58:32;2.80;;;2.28;;
10166;SDS011;5125;53.130;8.244;2022-07-30T14:01:00;12.52;;;2.97;;
10166;SDS011;5125;53.130;8.244;2022-07-30T14:03:30;4.22;;;2.40;;
10166;SDS011;5125;53.130;8.244;2022-07-30T14:06:02;3.35;;;2.38;;
10166;SDS011;5125;53.130;8.244;2022-07-30T14:08:32;2.85;;;2.33;;
10166;SDS011;5125;53.130;8.244;2022-07-30T14:11:00;2.80;;;2.10;;
10166;SDS011;5125;53.130;8.244;2022-07-30T14:13:29;2.25;;;1.92;;
10166;SDS011;5125;53.130;8.244;2022-07-30T14:15:57;2.20;;;2.10;;
10166;SDS011;5125;53.130;8.244;2022-07-30T14:18:26;4.32;;;2.60;;
10166;SDS011;5125;53.130;8.244;2022-07-30T14:20:55;2.50;;;2.00;;
10166;SDS011;5125;53.130;8.244;2022-07-30T14:23:26;3.25;;;2.15;;
10166;SDS011;5125;53.130;8.244;2022-07-30T14:25:55;3.13;;;2.40;;
10166;SDS011;5125;53.130;8.244;2022-07-30T14:28:23;4.82;;;2.30;;
10166;SDS011;5125;53.130;8.244;2022-07-30T14:30:52;2.80;;;2.50;;
10166;SDS011;5125;53.130;8.244;2022-07-30T14:33:21;3.20;;;2.45;;
10166;SDS011;5125;53.130;8.244;2022-07-30T14:35:50;2.40;;;2.20;;
10166;SDS011;5125;53.130;8.244;2022-07-30T14:38:19;2.35;;;2.10;;
10166;SDS011;5125;53.130;8.244;2022-07-30T14:40:50;2.47;;;2.25;;
10166;SDS011;5125;53.130;8.244;2022-07-30T14:43:19;3.53;;;2.10;;
10166;SDS011;5125;53.130;8.244;2022-07-30T14:45:49;2.67;;;2.13;;
10166;SDS011;5125;53.130;8.244;2022-07-30T14:48:17;3.85;;;2.13;;
10166;SDS011;5125;53.130;8.244;2022-07-30T14:50:46;3.60;;;2.55;;
10166;SDS011;5125;53.130;8.244;2022-07-30T14:53:14;2.50;;;2.30;;
10166;SDS011;5125;53.130;8.244;2022-07-30T14:55:43;3.42;;;2.28;;
10166;SDS011;5125;53.130;8.244;2022-07-30T14:58:14;2.45;;;2.25;;
10166;SDS011;5125;53.130;8.244;2022-07-30T15:00:43;3.30;;;2.15;;
10166;SDS011;5125;53.130;8.244;2022-07-30T15:03:12;2.72;;;2.47;;
10166;SDS011;5125;53.130;8.244;2022-07-30T15:05:40;2.47;;;2.10;;
10166;SDS011;5125;53.130;8.244;2022-07-30T15:08:09;2.83;;;2.40;;
10166;SDS011;5125;53.130;8.244;2022-07-30T15:10:37;2.60;;;2.40;;
10166;SDS011;5125;53.130;8.244;2022-07-30T15:13:07;3.25;;;2.10;;
10166;SDS011;5125;53.130;8.244;2022-07-30T15:15:38;2.70;;;2.47;;
10166;SDS011;5125;53.130;8.244;2022-07-30T15:18:07;2.97;;;2.47;;
10166;SDS011;5125;53.130;8.244;2022-07-30T15:20:35;2.22;;;2.00;;
10166;SDS011;5125;53.130;8.244;2022-07-30T15:23:04;3.15;;;2.60;;
10166;SDS011;5125;53.130;8.244;2022-07-30T15:25:32;2.58;;;2.38;;
10166;SDS011;5125;53.130;8.244;2022-07-30T15:28:01;2.47;;;2.28;;
10166;SDS011;5125;53.130;8.244;2022-07-30T15:30:30;3.67;;;2.40;;
10166;SDS011;5125;53.130;8.244;2022-07-30T15:33:02;3.17;;;2.45;;
10166;SDS011;5125;53.130;8.244;2022-07-30T15:35:30;3.75;;;2.53;;
10166;SDS011;5125;53.130;8.244;2022-07-30T15:37:59;2.40;;;2.17;;
10166;SDS011;5125;53.130;8.244;2022-07-30T15:40:28;4.20;;;2.63;;
10166;SDS011;5125;53.130;8.244;2022-07-30T15:42:56;3.00;;;2.30;;
10166;SDS011;5125;53.130;8.244;2022-07-30T15:45:26;3.28;;;2.53;;
10166;SDS011;5125;53.130;8.244;2022-07-30T15:47:54;2.47;;;2.28;;
10166;SDS011;5125;53.130;8.244;2022-07-30T15:50:25;3.15;;;2.22;;
10166;SDS011;5125;53.130;8.244;2022-07-30T15:52:54;3.13;;;2.58;;
10166;SDS011;5125;53.130;8.244;2022-07-30T15:55:23;3.85;;;2.50;;
10166;SDS011;5125;53.130;8.244;2022-07-30T15:57:52;4.90;;;2.90;;
10166;SDS011;5125;53.130;8.244;2022-07-30T16:00:20;4.93;;;2.80;;
10166;SDS011;5125;53.130;8.244;2022-07-30T16:02:49;5.40;;;3.28;;
10166;SDS011;5125;53.130;8.244;2022-07-30T16:05:20;4.00;;;3.25;;